createdAt,value
2023-03-31T00:03:44.818Z,99002.60
2023-03-31T00:08:52.403Z,99004.40
2023-03-31T00:13:56.137Z,99008.60
2023-03-31T00:19:02.207Z,99010.00
2023-03-31T00:24:07.413Z,99023.20
2023-03-31T00:29:14.033Z,99020.60
2023-03-31T00:34:17.071Z,99023.40
2023-03-31T00:39:20.165Z,99023.80
2023-03-31T00:44:29.338Z,99020.40
2023-03-31T00:49:47.495Z,99022.20
2023-03-31T00:55:01.298Z,99018.20
2023-03-31T01:00:16.695Z,99022.00
2023-03-31T01:05:29.616Z,99019.00
2023-03-31T01:10:42.240Z,99022.60
2023-03-31T01:15:46.401Z,99026.00
2023-03-31T01:21:39.851Z,99017.40
2023-03-31T01:27:43.904Z,99015.80
2023-03-31T01:33:31.188Z,99013.20
2023-03-31T01:38:57.518Z,99006.00
2023-03-31T01:44:18.732Z,99017.20
2023-03-31T01:49:39.611Z,99023.60
2023-03-31T01:54:50.765Z,99027.80
2023-03-31T02:00:17.161Z,99018.00
2023-03-31T02:05:31.860Z,99015.60
2023-03-31T02:10:36.423Z,99016.20
2023-03-31T02:16:11.305Z,99020.20
2023-03-31T02:21:22.930Z,99014.40
2023-03-31T02:26:34.269Z,99012.40
2023-03-31T02:32:10.325Z,99012.60
2023-03-31T02:37:20.915Z,99006.00
2023-03-31T02:42:25.648Z,99007.00
2023-03-31T02:47:31.518Z,99009.20
2023-03-31T02:53:26.991Z,99009.40
2023-03-31T02:58:40.737Z,99003.40
2023-03-31T03:04:37.925Z,99009.60
2023-03-31T03:10:12.961Z,99012.40
2023-03-31T03:15:47.426Z,99010.60
2023-03-31T03:21:00.136Z,99010.80
2023-03-31T03:26:15.353Z,99009.00
2023-03-31T03:31:26.459Z,99006.20
2023-03-31T03:36:38.975Z,99008.00
2023-03-31T03:41:52.898Z,99017.40
2023-03-31T03:46:56.043Z,99019.60
2023-03-31T03:52:10.955Z,99017.40
2023-03-31T03:57:14.023Z,99010.40
2023-03-31T04:02:17.205Z,99010.60
2023-03-31T04:07:20.414Z,99004.20
2023-03-31T04:12:26.101Z,99002.20
2023-03-31T04:17:35.053Z,99004.40
2023-03-31T04:22:41.489Z,98997.20
2023-03-31T04:27:56.002Z,99002.00
2023-03-31T04:33:02.816Z,98993.80
2023-03-31T04:38:05.933Z,98989.60
2023-03-31T04:43:09.162Z,98974.00
2023-03-31T04:48:13.441Z,98971.20
2023-03-31T04:53:16.812Z,98972.20
2023-03-31T04:58:20.001Z,98973.80
2023-03-31T05:03:23.252Z,98972.20
2023-03-31T05:08:27.652Z,98965.60
2023-03-31T05:13:36.351Z,98970.60
2023-03-31T05:18:42.308Z,98964.20
2023-03-31T05:24:10.732Z,98962.80
2023-03-31T05:29:14.392Z,98956.00
2023-03-31T05:34:17.424Z,98947.40
2023-03-31T05:39:21.446Z,98951.40
2023-03-31T05:44:24.382Z,98943.40
2023-03-31T05:49:27.360Z,98944.00
2023-03-31T05:54:30.507Z,98933.00
2023-03-31T05:59:35.658Z,98936.60
2023-03-31T06:04:39.040Z,98931.40
2023-03-31T06:09:42.114Z,98931.20
2023-03-31T06:14:45.427Z,98932.60
2023-03-31T06:19:57.620Z,98934.40
2023-03-31T06:25:00.569Z,98946.80
2023-03-31T06:30:04.134Z,98944.00
2023-03-31T06:35:07.561Z,98947.20
2023-03-31T06:40:13.853Z,98947.20
2023-03-31T06:45:33.177Z,98953.60
2023-03-31T06:50:40.068Z,98943.80
2023-03-31T06:55:42.917Z,98945.20
2023-03-31T07:00:48.492Z,98950.20
2023-03-31T07:05:53.672Z,98945.60
2023-03-31T07:11:00.008Z,98942.60
2023-03-31T07:16:05.106Z,98946.00
2023-03-31T07:21:10.031Z,98947.20
2023-03-31T07:26:13.468Z,98947.00
2023-03-31T07:31:16.525Z,98945.40
2023-03-31T07:36:19.832Z,98944.20
2023-03-31T07:41:23.854Z,98946.80
2023-03-31T07:46:29.336Z,98940.20
2023-03-31T07:51:32.179Z,98943.20
2023-03-31T07:56:35.080Z,98935.00
2023-03-31T08:01:37.955Z,98931.60
2023-03-31T08:06:41.399Z,98921.00
2023-03-31T08:11:46.791Z,98909.60
2023-03-31T08:16:51.860Z,98913.00
2023-03-31T08:21:54.668Z,98911.00
2023-03-31T08:26:57.708Z,98906.60
2023-03-31T08:32:00.681Z,98906.40
2023-03-31T08:37:05.612Z,98908.60
2023-03-31T08:42:23.351Z,98906.20
2023-03-31T08:47:32.463Z,98901.40
2023-03-31T08:52:44.155Z,98900.60
2023-03-31T08:58:17.777Z,98897.40
2023-03-31T09:03:34.451Z,98889.80
2023-03-31T09:08:42.108Z,98889.20
2023-03-31T09:14:03.189Z,98884.00
2023-03-31T09:19:20.028Z,98880.20
2023-03-31T09:24:36.264Z,98878.40
2023-03-31T09:29:57.553Z,98873.60
2023-03-31T09:35:16.297Z,98872.80
2023-03-31T09:40:24.006Z,98880.40
2023-03-31T09:45:28.640Z,98871.40
2023-03-31T09:50:39.680Z,98871.20
2023-03-31T09:55:53.750Z,98870.00
2023-03-31T10:01:16.280Z,98865.60
2023-03-31T10:06:20.995Z,98863.40
2023-03-31T10:11:27.356Z,98865.80
2023-03-31T10:16:47.263Z,98863.20
2023-03-31T10:22:16.882Z,98860.40
2023-03-31T10:27:31.641Z,98862.80
2023-03-31T10:32:42.956Z,98854.40
2023-03-31T10:37:49.794Z,98857.40
2023-03-31T10:43:21.976Z,98854.80
2023-03-31T10:48:34.778Z,98857.80
2023-03-31T10:53:52.569Z,98850.00
2023-03-31T10:59:40.181Z,98846.00
2023-03-31T11:05:25.564Z,98843.20
2023-03-31T11:11:19.690Z,98841.00
2023-03-31T11:16:56.633Z,98837.60
2023-03-31T11:22:33.537Z,98836.60
2023-03-31T11:28:09.423Z,98832.00
2023-03-31T11:33:43.108Z,98835.40
2023-03-31T11:39:03.777Z,98830.00
2023-03-31T11:44:12.683Z,98827.80
2023-03-31T11:49:23.636Z,98818.60
2023-03-31T11:55:15.540Z,98819.40
2023-03-31T12:00:29.244Z,98819.80
2023-03-31T12:05:36.358Z,98808.80
2023-03-31T12:10:52.034Z,98802.60
2023-03-31T12:16:06.978Z,98802.60
2023-03-31T12:21:11.455Z,98792.00
2023-03-31T12:26:29.529Z,98781.40
2023-03-31T12:31:33.413Z,98777.40
2023-03-31T12:37:04.316Z,98776.60
2023-03-31T12:42:53.816Z,98776.20
2023-03-31T12:48:30.016Z,98763.60
2023-03-31T12:54:00.790Z,98754.20
2023-03-31T12:59:32.235Z,98751.40
2023-03-31T13:04:39.576Z,98747.80
2023-03-31T13:09:47.167Z,98738.20
2023-03-31T13:15:00.402Z,98724.40
2023-03-31T13:20:26.558Z,98708.20
2023-03-31T13:25:29.404Z,98705.20
2023-03-31T13:30:41.520Z,98704.20
2023-03-31T13:36:10.454Z,98705.20
2023-03-31T13:41:26.639Z,98690.80
2023-03-31T13:47:15.532Z,98692.00
2023-03-31T13:52:47.888Z,98685.60
2023-03-31T13:58:35.486Z,98677.80
2023-03-31T14:03:55.560Z,98670.20
2023-03-31T14:09:19.283Z,98671.00
2023-03-31T14:14:24.520Z,98675.40
2023-03-31T14:19:42.359Z,98669.80
2023-03-31T14:25:20.745Z,98665.20
2023-03-31T14:30:23.644Z,98656.20
2023-03-31T14:35:53.185Z,98642.20
2023-03-31T14:41:00.943Z,98637.60
2023-03-31T14:46:07.780Z,98633.20
2023-03-31T14:51:14.052Z,98630.00
2023-03-31T14:56:28.214Z,98617.60
2023-03-31T15:01:40.107Z,98612.60
2023-03-31T15:06:48.106Z,98618.60
2023-03-31T15:12:01.708Z,98620.20
2023-03-31T15:17:04.571Z,98623.00
2023-03-31T15:22:20.834Z,98626.20
2023-03-31T15:27:39.356Z,98624.00
2023-03-31T15:32:42.900Z,98621.80
2023-03-31T15:37:54.873Z,98614.60
2023-03-31T15:43:25.557Z,98614.80
2023-03-31T15:48:48.620Z,98616.00
2023-03-31T15:53:55.055Z,98615.80
2023-03-31T15:59:00.860Z,98608.60
2023-03-31T16:04:10.595Z,98607.20
2023-03-31T16:09:43.953Z,98607.20
2023-03-31T16:15:02.923Z,98602.60
2023-03-31T16:20:19.032Z,98595.80
2023-03-31T16:25:26.092Z,98594.80
2023-03-31T16:30:43.796Z,98590.80
2023-03-31T16:35:55.956Z,98584.00
2023-03-31T16:40:59.352Z,98576.20
2023-03-31T16:46:04.519Z,98569.40
2023-03-31T16:51:07.345Z,98576.20
2023-03-31T16:56:14.821Z,98576.40
2023-03-31T17:01:17.779Z,98572.60
2023-03-31T17:06:20.641Z,98572.00
2023-03-31T17:11:23.889Z,98567.00
2023-03-31T17:16:32.958Z,98564.20
2023-03-31T17:21:44.044Z,98560.80
2023-03-31T17:26:46.997Z,98559.60
2023-03-31T17:31:49.840Z,98554.20
2023-03-31T17:36:54.848Z,98554.40
2023-03-31T17:41:58.556Z,98555.60
2023-03-31T17:47:01.493Z,98548.80
2023-03-31T17:52:04.778Z,98549.20
2023-03-31T17:57:07.941Z,98550.00
2023-03-31T18:02:16.370Z,98553.60
2023-03-31T18:07:19.401Z,98552.60
2023-03-31T18:12:22.357Z,98553.20
2023-03-31T18:17:25.383Z,98554.00
2023-03-31T18:22:28.854Z,98549.40
2023-03-31T18:27:31.764Z,98546.80
2023-03-31T18:32:35.832Z,98548.60
2023-03-31T18:37:38.778Z,98542.00
2023-03-31T18:42:42.301Z,98545.80
2023-03-31T18:47:45.327Z,98535.60
2023-03-31T18:52:49.643Z,98536.00
2023-03-31T18:57:53.147Z,98547.40
2023-03-31T19:02:59.702Z,98544.40
2023-03-31T19:08:03.299Z,98547.80
2023-03-31T19:13:08.029Z,98540.40
2023-03-31T19:18:15.444Z,98555.00
2023-03-31T19:23:18.430Z,98555.00
2023-03-31T19:28:24.749Z,98533.40
2023-03-31T19:33:27.791Z,98531.40
2023-03-31T19:38:32.742Z,98534.80
2023-03-31T19:43:35.917Z,98521.60
2023-03-31T19:48:38.906Z,98517.60
2023-03-31T19:53:42.463Z,98516.40
2023-03-31T19:58:45.879Z,98509.40
2023-03-31T20:03:53.400Z,98500.80
2023-03-31T20:09:00.978Z,98496.60
2023-03-31T20:14:07.756Z,98493.40
2023-03-31T20:19:14.170Z,98487.60
2023-03-31T20:24:21.201Z,98489.80
2023-03-31T20:29:26.646Z,98489.80
2023-03-31T20:34:29.935Z,98484.40
2023-03-31T20:39:33.836Z,98484.40
2023-03-31T20:44:40.219Z,98478.60
2023-03-31T20:49:44.260Z,98479.60
2023-03-31T20:54:48.042Z,98486.00
2023-03-31T20:59:52.114Z,98479.20
2023-03-31T21:04:58.466Z,98474.80
2023-03-31T21:10:02.555Z,98470.60
2023-03-31T21:15:06.862Z,98471.00
2023-03-31T21:20:12.769Z,98466.80
2023-03-31T21:25:17.521Z,98462.60
2023-03-31T21:30:22.203Z,98460.00
2023-03-31T21:35:25.105Z,98457.40
2023-03-31T21:40:31.048Z,98464.20
2023-03-31T21:45:38.294Z,98460.40
2023-03-31T21:50:41.587Z,98472.00
2023-03-31T21:55:55.446Z,98477.60
2023-03-31T22:01:02.835Z,98472.60
2023-03-31T22:06:08.169Z,98475.40
2023-03-31T22:11:12.681Z,98468.20
2023-03-31T22:16:20.839Z,98466.80
2023-03-31T22:21:27.582Z,98462.20
2023-03-31T22:26:31.320Z,98461.60
2023-03-31T22:31:37.376Z,98458.20
2023-03-31T22:36:40.597Z,98457.60
2023-03-31T22:41:45.007Z,98452.80
2023-03-31T22:46:48.082Z,98457.60
2023-03-31T22:51:54.284Z,98453.40
2023-03-31T22:56:57.433Z,98444.20
2023-03-31T23:02:00.570Z,98436.40
2023-03-31T23:07:03.621Z,98448.80
2023-03-31T23:12:06.642Z,98447.60
2023-03-31T23:17:09.934Z,98446.60
2023-03-31T23:22:14.221Z,98443.20
2023-03-31T23:27:17.797Z,98444.60
2023-03-31T23:32:21.038Z,98437.00
2023-03-31T23:37:24.109Z,98432.60
2023-03-31T23:42:27.408Z,98430.00
2023-03-31T23:47:30.652Z,98422.00
2023-03-31T23:52:36.162Z,98421.40
2023-03-31T23:57:39.031Z,98418.00
